createdAt,value
2023-04-26T00:00:43.938Z,11.40
2023-04-26T00:01:45.631Z,11.40
2023-04-26T00:02:47.684Z,11.30
2023-04-26T00:03:50.154Z,11.30
2023-04-26T00:04:56.708Z,11.30
2023-04-26T00:06:03.853Z,11.30
2023-04-26T00:07:06.564Z,11.30
2023-04-26T00:08:09.224Z,11.30
2023-04-26T00:09:11.082Z,11.30
2023-04-26T00:10:13.056Z,11.30
2023-04-26T00:11:15.124Z,11.30
2023-04-26T00:12:16.964Z,11.30
2023-04-26T00:13:18.651Z,11.30
2023-04-26T00:14:20.389Z,11.30
2023-04-26T00:15:22.512Z,11.30
2023-04-26T00:16:24.676Z,11.20
2023-04-26T00:17:27.000Z,11.20
2023-04-26T00:18:28.730Z,11.20
2023-04-26T00:19:30.904Z,11.20
2023-04-26T00:20:32.774Z,11.20
2023-04-26T00:21:34.650Z,11.20
2023-04-26T00:22:36.408Z,11.10
2023-04-26T00:23:38.251Z,11.10
2023-04-26T00:24:40.030Z,11.10
2023-04-26T00:25:42.663Z,11.10
2023-04-26T00:26:44.344Z,11.10
2023-04-26T00:27:46.414Z,11.20
2023-04-26T00:28:48.312Z,11.20
2023-04-26T00:29:50.081Z,11.20
2023-04-26T00:30:52.113Z,11.20
2023-04-26T00:31:53.986Z,11.20
2023-04-26T00:32:55.806Z,11.20
2023-04-26T00:33:57.569Z,11.20
2023-04-26T00:34:59.274Z,11.20
2023-04-26T00:36:00.976Z,11.20
2023-04-26T00:37:04.107Z,11.20
2023-04-26T00:38:05.934Z,11.20
2023-04-26T00:39:08.764Z,11.10
2023-04-26T00:40:11.585Z,11.20
2023-04-26T00:41:14.271Z,11.20
2023-04-26T00:42:16.099Z,11.20
2023-04-26T00:43:17.901Z,11.20
2023-04-26T00:44:19.740Z,11.20
2023-04-26T00:45:21.502Z,11.20
2023-04-26T00:46:23.517Z,11.20
2023-04-26T00:47:26.264Z,11.20
2023-04-26T00:48:28.239Z,11.20
2023-04-26T00:49:30.223Z,11.20
2023-04-26T00:50:32.684Z,11.20
2023-04-26T00:51:36.188Z,11.20
2023-04-26T00:52:38.458Z,11.20
2023-04-26T00:53:41.334Z,11.20
2023-04-26T00:54:43.532Z,11.20
2023-04-26T00:55:45.835Z,11.20
2023-04-26T00:56:48.325Z,11.20
2023-04-26T00:57:50.153Z,11.20
2023-04-26T00:58:52.423Z,11.20
2023-04-26T00:59:54.308Z,11.20
2023-04-26T01:00:56.172Z,11.20
2023-04-26T01:01:58.389Z,11.20
2023-04-26T01:03:00.402Z,11.20
2023-04-26T01:04:03.982Z,11.20
2023-04-26T01:05:06.912Z,11.20
2023-04-26T01:06:09.002Z,11.10
2023-04-26T01:07:11.966Z,11.10
2023-04-26T01:08:17.504Z,11.10
2023-04-26T01:09:19.428Z,11.10
2023-04-26T01:10:21.163Z,11.10
2023-04-26T01:11:23.642Z,11.10
2023-04-26T01:12:26.501Z,11.00
2023-04-26T01:13:29.665Z,11.10
2023-04-26T01:14:32.631Z,11.10
2023-04-26T01:15:36.094Z,11.10
2023-04-26T01:16:38.717Z,11.10
2023-04-26T01:17:46.000Z,11.10
2023-04-26T01:18:54.342Z,11.10
2023-04-26T01:19:57.153Z,11.10
2023-04-26T01:20:59.243Z,11.00
2023-04-26T01:22:01.892Z,11.00
2023-04-26T01:23:03.787Z,11.00
2023-04-26T01:24:06.052Z,11.00
2023-04-26T01:25:12.103Z,11.00
2023-04-26T01:26:14.117Z,11.00
2023-04-26T01:27:17.097Z,10.90
2023-04-26T01:28:18.836Z,10.90
2023-04-26T01:29:22.640Z,11.00
2023-04-26T01:30:26.102Z,10.90
2023-04-26T01:31:27.855Z,10.90
2023-04-26T01:32:29.688Z,10.90
2023-04-26T01:33:31.476Z,10.90
2023-04-26T01:34:34.559Z,10.90
2023-04-26T01:35:36.405Z,10.90
2023-04-26T01:36:40.859Z,10.90
2023-04-26T01:37:42.694Z,10.90
2023-04-26T01:38:44.371Z,11.00
2023-04-26T01:39:46.572Z,10.90
2023-04-26T01:40:48.457Z,11.00
2023-04-26T01:41:50.197Z,11.00
2023-04-26T01:42:51.887Z,11.00
2023-04-26T01:43:53.827Z,11.00
2023-04-26T01:44:55.547Z,11.00
2023-04-26T01:45:57.335Z,10.90
2023-04-26T01:46:59.060Z,10.90
2023-04-26T01:48:00.838Z,10.90
2023-04-26T01:49:02.705Z,10.90
2023-04-26T01:50:04.847Z,10.90
2023-04-26T01:51:06.714Z,10.90
2023-04-26T01:52:08.727Z,10.90
2023-04-26T01:53:10.904Z,10.90
2023-04-26T01:54:13.097Z,10.90
2023-04-26T01:55:14.955Z,10.90
2023-04-26T01:56:16.993Z,10.90
2023-04-26T01:57:18.760Z,10.90
2023-04-26T01:58:20.462Z,10.90
2023-04-26T01:59:22.243Z,10.80
2023-04-26T02:00:23.992Z,10.80
2023-04-26T02:01:25.926Z,10.80
2023-04-26T02:02:27.999Z,10.90
2023-04-26T02:03:29.788Z,10.90
2023-04-26T02:04:31.723Z,10.90
2023-04-26T02:05:33.950Z,10.90
2023-04-26T02:06:36.291Z,10.90
2023-04-26T02:07:39.073Z,10.90
2023-04-26T02:08:40.913Z,10.90
2023-04-26T02:09:43.047Z,10.90
2023-04-26T02:10:44.747Z,10.90
2023-04-26T02:11:48.806Z,10.90
2023-04-26T02:12:50.877Z,10.90
2023-04-26T02:13:53.976Z,10.90
2023-04-26T02:14:56.085Z,10.80
2023-04-26T02:15:58.279Z,10.80
2023-04-26T02:17:00.354Z,10.80
2023-04-26T02:18:02.675Z,10.90
2023-04-26T02:19:05.417Z,10.80
2023-04-26T02:20:10.497Z,10.80
2023-04-26T02:21:12.860Z,10.80
2023-04-26T02:22:14.981Z,10.80
2023-04-26T02:23:17.113Z,10.80
2023-04-26T02:24:19.334Z,10.80
2023-04-26T02:25:21.445Z,10.80
2023-04-26T02:26:23.442Z,10.80
2023-04-26T02:27:25.353Z,10.80
2023-04-26T02:28:27.253Z,10.80
2023-04-26T02:29:43.080Z,10.70
2023-04-26T02:30:46.633Z,10.70
2023-04-26T02:31:48.859Z,10.70
2023-04-26T02:32:53.151Z,10.70
2023-04-26T02:33:54.991Z,10.70
2023-04-26T02:34:57.802Z,10.70
2023-04-26T02:35:59.932Z,10.70
2023-04-26T02:37:01.903Z,10.70
2023-04-26T02:38:04.257Z,10.70
2023-04-26T02:39:06.019Z,10.70
2023-04-26T02:40:11.105Z,10.60
2023-04-26T02:41:14.212Z,10.60
2023-04-26T02:42:15.906Z,10.50
2023-04-26T02:43:17.698Z,10.50
2023-04-26T02:44:19.537Z,10.40
2023-04-26T02:45:21.223Z,10.40
2023-04-26T02:46:23.040Z,10.40
2023-04-26T02:47:25.163Z,10.40
2023-04-26T02:48:28.568Z,10.40
2023-04-26T02:49:32.345Z,10.40
2023-04-26T02:50:36.704Z,10.40
2023-04-26T02:51:38.591Z,10.40
2023-04-26T02:52:40.588Z,10.40
2023-04-26T02:53:42.347Z,10.40
2023-04-26T02:54:44.286Z,10.40
2023-04-26T02:55:46.589Z,10.40
2023-04-26T02:56:48.470Z,10.40
2023-04-26T02:57:50.355Z,10.40
2023-04-26T02:58:52.458Z,10.40
2023-04-26T02:59:55.714Z,10.50
2023-04-26T03:01:01.112Z,10.50
2023-04-26T03:02:03.508Z,10.50
2023-04-26T03:03:05.743Z,10.50
2023-04-26T03:04:08.047Z,10.50
2023-04-26T03:05:10.728Z,10.50
2023-04-26T03:06:13.785Z,10.50
2023-04-26T03:07:16.175Z,10.50
2023-04-26T03:08:17.926Z,10.50
2023-04-26T03:09:19.697Z,10.50
2023-04-26T03:10:21.454Z,10.50
2023-04-26T03:11:23.167Z,10.50
2023-04-26T03:12:24.979Z,10.50
2023-04-26T03:13:26.779Z,10.50
2023-04-26T03:14:29.600Z,10.50
2023-04-26T03:15:31.540Z,10.50
2023-04-26T03:16:42.246Z,10.50
2023-04-26T03:17:44.180Z,10.50
2023-04-26T03:18:45.898Z,10.50
2023-04-26T03:19:48.037Z,10.50
2023-04-26T03:20:50.332Z,10.50
2023-04-26T03:21:52.597Z,10.40
2023-04-26T03:22:54.379Z,10.40
2023-04-26T03:23:56.201Z,10.40
2023-04-26T03:24:57.893Z,10.40
2023-04-26T03:25:59.684Z,10.40
2023-04-26T03:27:01.802Z,10.40
2023-04-26T03:28:04.116Z,10.40
2023-04-26T03:29:07.022Z,10.40
2023-04-26T03:30:09.275Z,10.40
2023-04-26T03:31:11.792Z,10.30
2023-04-26T03:32:13.597Z,10.40
2023-04-26T03:33:15.526Z,10.40
2023-04-26T03:34:17.727Z,10.40
2023-04-26T03:35:19.759Z,10.40
2023-04-26T03:36:21.721Z,10.40
2023-04-26T03:37:23.479Z,10.40
2023-04-26T03:38:25.357Z,10.40
2023-04-26T03:39:27.104Z,10.30
2023-04-26T03:40:28.885Z,10.30
2023-04-26T03:41:33.148Z,10.30
2023-04-26T03:42:34.902Z,10.30
2023-04-26T03:43:36.583Z,10.30
2023-04-26T03:44:38.489Z,10.30
2023-04-26T03:45:40.233Z,10.30
2023-04-26T03:46:43.484Z,10.50
2023-04-26T03:47:46.970Z,10.30
2023-04-26T03:48:48.764Z,10.30
2023-04-26T03:49:50.584Z,10.20
2023-04-26T03:50:52.309Z,10.30
2023-04-26T03:51:53.991Z,10.20
2023-04-26T03:52:56.484Z,10.20
2023-04-26T03:53:59.378Z,10.20
2023-04-26T03:55:01.150Z,10.20
2023-04-26T03:56:03.191Z,10.20
2023-04-26T03:57:05.048Z,10.20
2023-04-26T03:58:08.277Z,10.20
2023-04-26T03:59:10.364Z,10.20
2023-04-26T04:00:16.503Z,10.20
2023-04-26T04:01:19.389Z,10.20
2023-04-26T04:02:21.766Z,10.10
2023-04-26T04:03:23.856Z,10.20
2023-04-26T04:04:26.244Z,10.10
2023-04-26T04:05:28.574Z,10.10
2023-04-26T04:06:31.091Z,10.10
2023-04-26T04:07:38.666Z,10.10
2023-04-26T04:08:40.799Z,10.10
2023-04-26T04:09:42.575Z,10.10
2023-04-26T04:10:45.488Z,10.10
2023-04-26T04:11:47.653Z,10.10
2023-04-26T04:12:50.651Z,10.00
2023-04-26T04:13:52.632Z,10.00
2023-04-26T04:14:54.391Z,10.00
2023-04-26T04:15:56.454Z,10.00
2023-04-26T04:17:00.208Z,10.00
2023-04-26T04:18:01.957Z,10.00
2023-04-26T04:19:03.953Z,10.00
2023-04-26T04:20:07.546Z,10.00
2023-04-26T04:21:09.660Z,9.90
2023-04-26T04:22:11.723Z,9.90
2023-04-26T04:23:13.615Z,9.90
2023-04-26T04:24:15.405Z,9.90
2023-04-26T04:25:17.248Z,9.90
2023-04-26T04:26:19.182Z,9.90
2023-04-26T04:27:21.605Z,9.90
2023-04-26T04:28:24.137Z,9.90
2023-04-26T04:29:26.042Z,9.90
2023-04-26T04:30:31.026Z,9.90
2023-04-26T04:31:32.740Z,9.90
2023-04-26T04:32:37.127Z,9.90
2023-04-26T04:33:39.111Z,9.90
2023-04-26T04:34:41.827Z,9.90
2023-04-26T04:35:44.978Z,9.80
2023-04-26T04:36:47.782Z,9.90
2023-04-26T04:37:50.242Z,9.90
2023-04-26T04:38:55.935Z,9.80
2023-04-26T04:39:58.094Z,9.80
2023-04-26T04:41:00.000Z,9.90
2023-04-26T04:42:03.604Z,9.80
2023-04-26T04:43:05.379Z,9.80
2023-04-26T04:44:07.452Z,9.80
2023-04-26T04:45:10.998Z,9.70
2023-04-26T04:46:13.162Z,9.70
2023-04-26T04:47:16.276Z,9.60
2023-04-26T04:48:18.867Z,9.70
2023-04-26T04:49:22.348Z,9.60
2023-04-26T04:50:24.294Z,9.60
2023-04-26T04:51:26.053Z,9.60
2023-04-26T04:52:28.104Z,9.60
2023-04-26T04:53:30.192Z,9.60
2023-04-26T04:54:31.948Z,9.70
2023-04-26T04:55:33.779Z,9.70
2023-04-26T04:56:35.483Z,9.70
2023-04-26T04:57:37.323Z,9.70
2023-04-26T04:58:39.125Z,9.70
2023-04-26T04:59:41.315Z,9.70
2023-04-26T05:00:43.647Z,9.80
2023-04-26T05:01:45.434Z,9.70
2023-04-26T05:02:47.254Z,9.80
2023-04-26T05:03:49.098Z,9.80
2023-04-26T05:04:51.239Z,9.80
2023-04-26T05:05:53.137Z,9.80
2023-04-26T05:06:54.834Z,9.90
2023-04-26T05:07:56.572Z,9.80
2023-04-26T05:08:58.595Z,9.90
2023-04-26T05:10:00.895Z,9.90
2023-04-26T05:11:02.945Z,9.90
2023-04-26T05:12:04.875Z,9.90
2023-04-26T05:13:06.727Z,9.90
2023-04-26T05:14:08.532Z,9.90
2023-04-26T05:15:10.699Z,9.90
2023-04-26T05:16:13.067Z,9.90
2023-04-26T05:17:15.339Z,10.00
2023-04-26T05:18:17.212Z,10.00
2023-04-26T05:19:19.165Z,10.00
2023-04-26T05:20:21.006Z,10.00
2023-04-26T05:21:23.682Z,10.10
2023-04-26T05:22:27.537Z,10.10
2023-04-26T05:23:29.600Z,10.10
2023-04-26T05:24:33.941Z,10.10
2023-04-26T05:25:37.788Z,10.10
2023-04-26T05:26:39.693Z,10.10
2023-04-26T05:27:41.359Z,10.10
2023-04-26T05:28:43.733Z,10.20
2023-04-26T05:29:45.955Z,10.20
2023-04-26T05:30:47.838Z,10.20
2023-04-26T05:31:49.642Z,10.30
2023-04-26T05:32:51.389Z,10.40
2023-04-26T05:33:53.641Z,10.40
2023-04-26T05:34:55.702Z,10.50
2023-04-26T05:35:58.856Z,10.60
2023-04-26T05:37:00.813Z,10.60
2023-04-26T05:38:02.619Z,10.70
2023-04-26T05:39:07.941Z,10.70
2023-04-26T05:40:12.288Z,10.80
2023-04-26T05:41:16.157Z,10.90
2023-04-26T05:42:18.390Z,11.00
2023-04-26T05:43:21.659Z,11.30
2023-04-26T05:44:23.434Z,11.20
2023-04-26T05:45:25.938Z,11.30
2023-04-26T05:46:28.013Z,11.30
2023-04-26T05:47:31.955Z,11.40
2023-04-26T05:48:35.554Z,11.50
2023-04-26T05:49:39.243Z,11.60
2023-04-26T05:50:41.955Z,11.60
2023-04-26T05:51:45.513Z,11.70
2023-04-26T05:52:47.559Z,11.80
2023-04-26T05:53:49.456Z,11.80
2023-04-26T05:54:51.337Z,11.90
2023-04-26T05:55:53.549Z,11.90
2023-04-26T05:56:58.941Z,11.90
2023-04-26T05:58:01.542Z,11.90
2023-04-26T05:59:03.389Z,11.90
2023-04-26T06:00:06.385Z,11.90
2023-04-26T06:01:08.855Z,11.90
2023-04-26T06:02:11.563Z,12.00
2023-04-26T06:03:15.702Z,11.90
2023-04-26T06:04:19.589Z,12.00
2023-04-26T06:05:23.405Z,11.90
2023-04-26T06:06:29.597Z,12.00
2023-04-26T06:07:31.639Z,11.90
2023-04-26T06:08:35.347Z,12.00
2023-04-26T06:09:37.431Z,11.90
2023-04-26T06:10:39.429Z,11.90
2023-04-26T06:11:41.284Z,11.90
2023-04-26T06:12:43.125Z,11.90
2023-04-26T06:13:45.115Z,11.90
2023-04-26T06:14:47.176Z,11.90
2023-04-26T06:15:48.906Z,11.90
2023-04-26T06:16:51.684Z,11.80
2023-04-26T06:17:53.579Z,11.80
2023-04-26T06:18:57.277Z,11.90
2023-04-26T06:19:59.185Z,11.80
2023-04-26T06:21:01.657Z,11.80
2023-04-26T06:22:05.170Z,11.80
2023-04-26T06:23:07.333Z,11.80
2023-04-26T06:24:09.586Z,11.80
2023-04-26T06:25:11.690Z,11.80
2023-04-26T06:26:15.236Z,11.80
2023-04-26T06:27:16.890Z,11.80
2023-04-26T06:28:18.781Z,11.80
2023-04-26T06:29:21.554Z,11.80
2023-04-26T06:30:25.016Z,11.80
2023-04-26T06:31:26.804Z,11.80
2023-04-26T06:32:28.576Z,11.80
2023-04-26T06:33:30.372Z,11.80
2023-04-26T06:34:33.829Z,11.80
2023-04-26T06:35:43.554Z,11.80
2023-04-26T06:36:46.091Z,11.80
2023-04-26T06:37:47.763Z,11.80
2023-04-26T06:38:49.514Z,11.80
2023-04-26T06:39:51.406Z,11.70
2023-04-26T06:40:53.102Z,11.80
2023-04-26T06:41:55.210Z,11.80
2023-04-26T06:42:57.202Z,11.80
2023-04-26T06:43:59.392Z,11.80
2023-04-26T06:45:01.290Z,11.80
2023-04-26T06:46:03.240Z,11.80
2023-04-26T06:47:09.258Z,11.80
2023-04-26T06:48:11.005Z,11.90
2023-04-26T06:49:12.731Z,11.90
2023-04-26T06:50:15.318Z,11.90
2023-04-26T06:51:17.365Z,11.90
2023-04-26T06:52:21.068Z,11.90
2023-04-26T06:53:23.502Z,11.90
2023-04-26T06:54:29.993Z,12.00
2023-04-26T06:55:33.881Z,11.80
2023-04-26T06:56:36.319Z,11.80
2023-04-26T06:57:38.006Z,11.80
2023-04-26T06:58:39.623Z,11.90
2023-04-26T06:59:41.273Z,11.90
2023-04-26T07:00:43.471Z,11.90
2023-04-26T07:01:45.247Z,11.90
2023-04-26T07:02:47.358Z,11.90
2023-04-26T07:03:49.182Z,12.00
2023-04-26T07:04:51.674Z,12.00
2023-04-26T07:05:56.480Z,12.00
2023-04-26T07:06:58.172Z,12.00
2023-04-26T07:07:59.846Z,12.10
2023-04-26T07:09:03.158Z,12.10
2023-04-26T07:10:05.544Z,12.00
2023-04-26T07:11:11.778Z,11.90
2023-04-26T07:12:14.047Z,12.00
2023-04-26T07:13:15.917Z,12.00
2023-04-26T07:14:19.088Z,12.00
2023-04-26T07:15:20.893Z,12.00
2023-04-26T07:16:26.247Z,12.10
2023-04-26T07:17:29.485Z,12.10
2023-04-26T07:18:31.854Z,12.10
2023-04-26T07:19:33.557Z,12.10
2023-04-26T07:20:35.568Z,12.10
2023-04-26T07:21:38.420Z,12.20
2023-04-26T07:22:40.196Z,12.20
2023-04-26T07:23:45.788Z,12.20
2023-04-26T07:24:50.034Z,12.30
2023-04-26T07:25:53.791Z,12.30
2023-04-26T07:26:57.641Z,12.30
2023-04-26T07:28:01.702Z,12.30
2023-04-26T07:29:04.174Z,12.30
2023-04-26T07:30:06.683Z,12.30
2023-04-26T07:31:10.104Z,12.30
2023-04-26T07:32:13.386Z,12.40
2023-04-26T07:33:15.601Z,12.40
2023-04-26T07:34:17.431Z,12.40
2023-04-26T07:35:19.211Z,12.40
2023-04-26T07:36:22.430Z,12.40
2023-04-26T07:37:24.947Z,12.40
2023-04-26T07:38:26.756Z,12.40
2023-04-26T07:39:29.368Z,12.50
2023-04-26T07:40:31.835Z,12.50
2023-04-26T07:41:33.735Z,12.50
2023-04-26T07:42:36.380Z,12.50
2023-04-26T07:43:39.608Z,12.60
2023-04-26T07:44:41.316Z,12.60
2023-04-26T07:45:43.458Z,12.60
2023-04-26T07:46:45.239Z,12.60
2023-04-26T07:47:47.545Z,12.60
2023-04-26T07:48:49.576Z,12.60
2023-04-26T07:49:55.131Z,12.60
2023-04-26T07:50:57.253Z,12.70
2023-04-26T07:52:02.495Z,12.70
2023-04-26T07:53:04.392Z,12.70
2023-04-26T07:54:06.401Z,12.80
2023-04-26T07:55:08.914Z,12.80
2023-04-26T07:56:11.044Z,12.80
2023-04-26T07:57:13.293Z,12.80
2023-04-26T07:58:15.164Z,12.80
2023-04-26T07:59:16.978Z,12.80
2023-04-26T08:00:19.467Z,12.80
2023-04-26T08:01:21.288Z,12.90
2023-04-26T08:02:33.019Z,12.90
2023-04-26T08:03:45.297Z,12.90
2023-04-26T08:04:56.150Z,12.90
2023-04-26T08:05:59.842Z,12.90
2023-04-26T08:07:02.270Z,12.90
2023-04-26T08:08:04.483Z,13.00
2023-04-26T08:09:06.299Z,12.90
2023-04-26T08:10:08.443Z,12.80
2023-04-26T08:11:12.135Z,12.90
2023-04-26T08:12:15.434Z,12.90
2023-04-26T08:13:17.322Z,12.90
2023-04-26T08:14:19.203Z,12.80
2023-04-26T08:15:21.374Z,12.80
2023-04-26T08:16:23.148Z,12.80
2023-04-26T08:17:24.900Z,12.80
2023-04-26T08:18:26.867Z,12.80
2023-04-26T08:19:31.779Z,12.80
2023-04-26T08:20:33.568Z,12.80
2023-04-26T08:21:35.298Z,12.70
2023-04-26T08:22:37.230Z,12.80
2023-04-26T08:23:38.984Z,12.80
2023-04-26T08:24:45.073Z,12.70
2023-04-26T08:25:48.055Z,12.80
2023-04-26T08:26:50.188Z,12.80
2023-04-26T08:27:52.529Z,12.80
2023-04-26T08:28:55.630Z,12.80
2023-04-26T08:29:57.452Z,12.90
2023-04-26T08:30:59.317Z,13.00
2023-04-26T08:32:01.172Z,12.90
2023-04-26T08:33:03.553Z,13.00
2023-04-26T08:34:05.326Z,13.10
2023-04-26T08:35:07.398Z,13.00
2023-04-26T08:36:09.391Z,13.00
2023-04-26T08:37:12.049Z,13.10
2023-04-26T08:38:13.985Z,13.10
2023-04-26T08:39:18.031Z,13.20
2023-04-26T08:40:24.840Z,13.20
2023-04-26T08:41:27.538Z,13.30
2023-04-26T08:42:29.361Z,13.40
2023-04-26T08:43:31.103Z,13.50
2023-04-26T08:44:35.972Z,13.50
2023-04-26T08:45:40.938Z,13.60
2023-04-26T08:46:56.068Z,13.60
2023-04-26T08:48:04.910Z,13.60
2023-04-26T08:49:21.895Z,13.60
2023-04-26T08:50:25.126Z,13.60
2023-04-26T08:51:28.986Z,13.70
2023-04-26T08:52:32.469Z,13.70
2023-04-26T08:53:36.182Z,13.70
2023-04-26T08:54:40.838Z,13.70
2023-04-26T08:55:47.162Z,13.70
2023-04-26T08:56:49.596Z,13.70
2023-04-26T08:57:51.493Z,13.80
2023-04-26T08:58:54.310Z,13.70
2023-04-26T08:59:57.933Z,13.70
2023-04-26T09:01:01.068Z,13.70
2023-04-26T09:02:05.283Z,13.60
2023-04-26T09:03:07.153Z,13.60
2023-04-26T09:04:09.734Z,13.60
2023-04-26T09:05:12.302Z,13.60
2023-04-26T09:06:15.388Z,13.50
2023-04-26T09:07:32.766Z,13.50
2023-04-26T09:08:38.203Z,13.50
2023-04-26T09:09:42.655Z,13.50
2023-04-26T09:10:44.775Z,13.50
2023-04-26T09:11:57.972Z,13.50
2023-04-26T09:12:59.868Z,13.50
2023-04-26T09:14:01.613Z,13.50
2023-04-26T09:15:04.798Z,13.50
2023-04-26T09:16:11.806Z,13.50
2023-04-26T09:17:29.293Z,13.50
2023-04-26T09:18:33.550Z,13.50
2023-04-26T09:19:44.930Z,13.50
2023-04-26T09:21:01.364Z,13.50
2023-04-26T09:22:03.535Z,13.50
2023-04-26T09:23:10.300Z,13.60
2023-04-26T09:24:13.215Z,13.60
2023-04-26T09:25:17.928Z,13.60
2023-04-26T09:26:21.153Z,13.60
2023-04-26T09:27:31.547Z,13.60
2023-04-26T09:28:33.630Z,13.60
2023-04-26T09:29:35.666Z,13.60
2023-04-26T09:30:40.248Z,13.60
2023-04-26T09:31:49.724Z,13.60
2023-04-26T09:33:06.005Z,13.60
2023-04-26T09:34:08.973Z,13.70
2023-04-26T09:35:22.286Z,13.70
2023-04-26T09:36:24.147Z,13.70
2023-04-26T09:37:26.007Z,13.70
2023-04-26T09:38:27.717Z,13.70
2023-04-26T09:39:39.573Z,13.70
2023-04-26T09:40:51.549Z,13.70
2023-04-26T09:41:53.388Z,13.70
2023-04-26T09:43:03.629Z,13.70
2023-04-26T09:44:05.560Z,13.80
2023-04-26T09:45:10.641Z,13.70
2023-04-26T09:46:24.116Z,13.70
2023-04-26T09:47:25.945Z,13.60
2023-04-26T09:48:34.652Z,13.60
2023-04-26T09:49:50.637Z,13.60
2023-04-26T09:50:57.722Z,13.60
2023-04-26T09:52:06.735Z,13.60
2023-04-26T09:53:08.847Z,13.70
2023-04-26T09:54:10.791Z,13.70
2023-04-26T09:55:34.992Z,13.60
2023-04-26T09:56:37.864Z,13.60
2023-04-26T09:57:44.603Z,13.50
2023-04-26T09:59:00.994Z,13.50
2023-04-26T10:00:10.861Z,13.40
2023-04-26T10:01:14.780Z,13.40
2023-04-26T10:02:29.958Z,13.30
2023-04-26T10:03:34.152Z,13.30
2023-04-26T10:04:36.941Z,13.20
2023-04-26T10:05:39.215Z,13.20
2023-04-26T10:06:41.042Z,13.30
2023-04-26T10:07:43.003Z,13.30
2023-04-26T10:08:45.820Z,13.30
2023-04-26T10:09:48.082Z,13.30
2023-04-26T10:10:50.022Z,13.30
2023-04-26T10:11:51.833Z,13.30
2023-04-26T10:12:53.676Z,13.30
2023-04-26T10:13:55.525Z,13.30
2023-04-26T10:14:58.081Z,13.20
2023-04-26T10:16:04.757Z,13.30
2023-04-26T10:17:06.717Z,13.30
2023-04-26T10:18:09.318Z,13.30
2023-04-26T10:19:12.215Z,13.40
2023-04-26T10:20:14.947Z,13.50
2023-04-26T10:21:24.081Z,13.50
2023-04-26T10:22:33.660Z,13.60
2023-04-26T10:23:35.976Z,13.60
2023-04-26T10:24:38.131Z,13.70
2023-04-26T10:25:42.736Z,13.70
2023-04-26T10:26:53.021Z,13.70
2023-04-26T10:27:54.876Z,13.80
2023-04-26T10:29:02.137Z,13.90
2023-04-26T10:30:09.679Z,13.90
2023-04-26T10:31:12.090Z,14.00
2023-04-26T10:32:17.428Z,14.00
2023-04-26T10:33:20.472Z,14.10
2023-04-26T10:34:22.649Z,14.20
2023-04-26T10:35:30.673Z,14.30
2023-04-26T10:36:32.999Z,14.30
2023-04-26T10:37:34.848Z,14.40
2023-04-26T10:38:38.938Z,14.40
2023-04-26T10:39:43.098Z,14.50
2023-04-26T10:40:46.212Z,14.50
2023-04-26T10:41:47.938Z,14.50
2023-04-26T10:42:49.695Z,14.50
2023-04-26T10:43:51.735Z,14.50
2023-04-26T10:44:58.811Z,14.60
2023-04-26T10:46:33.790Z,14.60
2023-04-26T10:47:39.822Z,14.70
2023-04-26T10:48:41.822Z,14.70
2023-04-26T10:49:46.709Z,14.80
2023-04-26T10:51:18.642Z,14.90
2023-04-26T10:52:23.361Z,14.90
2023-04-26T10:53:25.160Z,14.90
2023-04-26T10:54:44.499Z,14.90
2023-04-26T10:55:46.737Z,14.90
2023-04-26T10:56:48.490Z,14.90
2023-04-26T10:57:54.631Z,14.90
2023-04-26T10:59:33.261Z,14.80
2023-04-26T11:00:35.914Z,14.70
2023-04-26T11:01:38.704Z,14.60
2023-04-26T11:02:53.408Z,14.60
2023-04-26T11:03:58.798Z,14.60
2023-04-26T11:05:04.558Z,14.50
2023-04-26T11:06:13.707Z,14.50
2023-04-26T11:07:16.277Z,14.50
2023-04-26T11:08:20.662Z,14.50
2023-04-26T11:09:48.291Z,14.50
2023-04-26T11:10:53.124Z,14.40
2023-04-26T11:11:55.707Z,14.40
2023-04-26T11:13:03.529Z,14.40
2023-04-26T11:14:06.533Z,14.50
2023-04-26T11:15:09.046Z,14.50
2023-04-26T11:16:13.299Z,14.50
2023-04-26T11:17:15.445Z,14.50
2023-04-26T11:18:20.731Z,14.60
2023-04-26T11:19:23.074Z,14.60
2023-04-26T11:20:34.982Z,14.60
2023-04-26T11:21:40.584Z,14.70
2023-04-26T11:22:42.552Z,14.80
2023-04-26T11:23:55.265Z,14.80
2023-04-26T11:24:56.944Z,14.90
2023-04-26T11:26:06.462Z,14.90
2023-04-26T11:27:09.820Z,15.00
2023-04-26T11:28:12.095Z,15.00
2023-04-26T11:29:21.667Z,15.10
2023-04-26T11:30:25.840Z,15.20
2023-04-26T11:31:45.792Z,15.00
2023-04-26T11:32:59.119Z,14.90
2023-04-26T11:34:14.838Z,14.90
2023-04-26T11:35:23.427Z,14.90
2023-04-26T11:36:28.377Z,14.90
2023-04-26T11:37:30.583Z,14.90
2023-04-26T11:38:32.308Z,14.90
2023-04-26T11:39:38.254Z,14.90
2023-04-26T11:40:41.715Z,15.00
2023-04-26T11:41:43.519Z,15.10
2023-04-26T11:42:45.491Z,15.20
2023-04-26T11:43:47.150Z,15.20
2023-04-26T11:44:51.792Z,15.20
2023-04-26T11:46:00.711Z,15.30
2023-04-26T11:47:06.517Z,15.30
2023-04-26T11:48:11.484Z,15.40
2023-04-26T11:49:13.832Z,15.30
2023-04-26T11:50:16.559Z,15.40
2023-04-26T11:51:19.092Z,15.40
2023-04-26T11:52:21.001Z,15.50
2023-04-26T11:53:22.768Z,15.60
2023-04-26T11:54:32.449Z,15.70
2023-04-26T11:55:35.345Z,15.70
2023-04-26T11:56:37.537Z,15.80
2023-04-26T11:57:39.389Z,15.80
2023-04-26T11:58:44.006Z,15.90
2023-04-26T11:59:46.281Z,15.80
2023-04-26T12:01:05.020Z,15.80
2023-04-26T12:02:07.646Z,15.70
2023-04-26T12:03:11.852Z,15.60
2023-04-26T12:04:14.119Z,15.50
2023-04-26T12:05:27.233Z,15.50
2023-04-26T12:06:42.112Z,15.40
2023-04-26T12:07:49.669Z,15.40
2023-04-26T12:08:52.225Z,15.50
2023-04-26T12:09:55.480Z,15.60
2023-04-26T12:11:02.839Z,15.60
2023-04-26T12:12:06.964Z,15.80
2023-04-26T12:13:09.534Z,15.80
2023-04-26T12:14:11.778Z,15.80
2023-04-26T12:15:15.608Z,15.80
2023-04-26T12:17:22.759Z,15.90
2023-04-26T12:18:32.887Z,16.00
2023-04-26T12:19:37.144Z,16.00
2023-04-26T12:20:41.097Z,16.00
2023-04-26T12:21:44.751Z,15.90
2023-04-26T12:23:02.609Z,15.80
2023-04-26T12:24:08.925Z,15.80
2023-04-26T12:25:10.912Z,15.80
2023-04-26T12:26:14.714Z,15.90
2023-04-26T12:27:23.108Z,15.90
2023-04-26T12:28:26.494Z,16.00
2023-04-26T12:29:30.754Z,16.00
2023-04-26T12:30:33.065Z,16.10
2023-04-26T12:31:34.879Z,16.10
2023-04-26T12:32:36.946Z,16.20
2023-04-26T12:33:38.792Z,16.20
2023-04-26T12:34:40.715Z,16.30
2023-04-26T12:35:45.571Z,16.30
2023-04-26T12:36:49.917Z,16.30
2023-04-26T12:37:53.989Z,16.30
2023-04-26T12:38:57.103Z,16.30
2023-04-26T12:39:59.112Z,16.40
2023-04-26T12:41:01.693Z,16.60
2023-04-26T12:42:04.523Z,16.70
2023-04-26T12:43:07.302Z,16.70
2023-04-26T12:44:10.609Z,16.60
2023-04-26T12:45:12.611Z,16.60
2023-04-26T12:46:16.873Z,16.60
2023-04-26T12:47:18.858Z,16.60
2023-04-26T12:48:21.227Z,16.60
2023-04-26T12:49:30.987Z,16.70
2023-04-26T12:50:33.261Z,16.70
2023-04-26T12:51:35.348Z,16.80
2023-04-26T12:52:37.478Z,16.80
2023-04-26T12:53:39.176Z,16.80
2023-04-26T12:54:47.149Z,16.80
2023-04-26T12:55:49.020Z,16.80
2023-04-26T12:56:51.540Z,16.80
2023-04-26T12:57:53.519Z,16.90
2023-04-26T12:58:55.820Z,16.90
2023-04-26T12:59:59.373Z,16.90
2023-04-26T13:01:01.199Z,16.90
2023-04-26T13:02:03.765Z,17.10
2023-04-26T13:03:05.527Z,17.00
2023-04-26T13:04:07.794Z,17.10
2023-04-26T13:05:10.636Z,17.10
2023-04-26T13:06:13.073Z,17.20
2023-04-26T13:07:15.080Z,17.20
2023-04-26T13:08:17.920Z,17.20
2023-04-26T13:09:20.617Z,17.20
2023-04-26T13:10:22.516Z,17.20
2023-04-26T13:11:24.318Z,17.30
2023-04-26T13:12:26.173Z,17.30
2023-04-26T13:13:39.938Z,17.40
2023-04-26T13:14:46.450Z,17.50
2023-04-26T13:15:51.250Z,17.60
2023-04-26T13:16:54.000Z,17.80
2023-04-26T13:17:55.892Z,17.90
2023-04-26T13:18:57.621Z,18.00
2023-04-26T13:19:59.506Z,18.20
2023-04-26T13:21:01.185Z,18.30
2023-04-26T13:22:04.585Z,18.30
2023-04-26T13:23:06.663Z,18.40
2023-04-26T13:24:10.207Z,18.50
2023-04-26T13:25:13.230Z,18.50
2023-04-26T13:26:20.345Z,18.50
2023-04-26T13:27:22.035Z,18.60
2023-04-26T13:28:24.339Z,18.60
2023-04-26T13:29:26.121Z,18.60
2023-04-26T13:30:28.766Z,18.50
2023-04-26T13:31:32.551Z,18.50
2023-04-26T13:32:34.734Z,18.60
2023-04-26T13:33:36.557Z,18.70
2023-04-26T13:34:39.660Z,18.80
2023-04-26T13:35:41.664Z,19.00
2023-04-26T13:36:44.121Z,19.10
2023-04-26T13:37:46.634Z,19.10
2023-04-26T13:38:48.810Z,19.20
2023-04-26T13:39:50.647Z,19.10
2023-04-26T13:40:55.310Z,19.10
2023-04-26T13:41:59.110Z,19.00